Time;durP1;ratioP1;P1;durP2;ratioP2;P2;SDS_P1;SDS_P2;PMS_P1;PMS_P2;Temp;Humidity;BMP_temperature;BMP_pressure;BME280_temperature;BME280_humidity;BME280_pressure;Samples;Min_cycle;Max_cycle;Signal;HPM_P1;HPM_P2
2022/03/12 00:01:29;;;;;;;16.95;8.80;;;;;;;;;;5093005;28;20056;-82
2022/03/12 00:03:57;;;;;;;24.42;8.68;;;;;;;;;;5094007;28;20056;-82
2022/03/12 00:06:23;;;;;;;16.67;8.85;;;;;;;;;;5092297;28;20094;-82
2022/03/12 00:08:51;;;;;;;19.75;9.10;;;;;;;;;;5098956;28;20053;-83
2022/03/12 00:11:18;;;;;;;18.25;8.98;;;;;;;;;;5105270;28;20057;-83
2022/03/12 00:13:46;;;;;;;14.80;8.15;;;;;;;;;;5093315;28;20611;-83
2022/03/12 00:16:14;;;;;;;20.52;8.23;;;;;;;;;;5092352;28;20057;-82
2022/03/12 00:18:42;;;;;;;31.88;9.50;;;;;;;;;;5090703;28;20495;-83
2022/03/12 00:21:11;;;;;;;16.92;8.20;;;;;;;;;;5091608;28;20060;-83
2022/03/12 00:23:38;;;;;;;15.95;8.40;;;;;;;;;;5092105;28;20060;-83
2022/03/12 00:26:04;;;;;;;17.25;9.07;;;;;;;;;;5092364;28;20040;-82
2022/03/12 00:28:30;;;;;;;19.73;8.57;;;;;;;;;;5090138;28;20492;-83
2022/03/12 00:30:57;;;;;;;19.48;8.90;;;;;;;;;;5091353;28;20098;-83
2022/03/12 00:33:24;;;;;;;17.08;8.65;;;;;;;;;;5091513;28;20526;-83
2022/03/12 00:35:52;;;;;;;18.67;8.20;;;;;;;;;;5091500;28;20048;-83
2022/03/12 00:38:21;;;;;;;19.85;8.68;;;;;;;;;;5089086;28;20102;-83
2022/03/12 00:40:48;;;;;;;17.50;8.50;;;;;;;;;;5079701;28;20057;-83
2022/03/12 00:43:15;;;;;;;18.60;8.23;;;;;;;;;;5086748;28;20104;-82
2022/03/12 00:45:42;;;;;;;23.05;8.85;;;;;;;;;;5085499;28;20052;-83
2022/03/12 00:48:08;;;;;;;16.10;8.60;;;;;;;;;;5086880;28;20515;-83
2022/03/12 00:50:55;;;;;;;14.20;8.10;;;;;;;;;;5084695;28;20147;-83
2022/03/12 00:53:21;;;;;;;17.88;8.77;;;;;;;;;;5084948;28;20029;-82
2022/03/12 00:55:48;;;;;;;17.45;8.43;;;;;;;;;;5085879;28;20095;-82
2022/03/12 00:58:14;;;;;;;18.20;8.88;;;;;;;;;;5084754;28;20084;-82
2022/03/12 01:00:40;;;;;;;17.35;7.82;;;;;;;;;;5088432;28;20459;-82
2022/03/12 01:03:07;;;;;;;15.20;8.57;;;;;;;;;;5078307;28;20088;-82
2022/03/12 01:05:41;;;;;;;16.23;8.20;;;;;;;;;;5069584;28;20068;-82
2022/03/12 01:08:07;;;;;;;17.90;8.80;;;;;;;;;;5085148;28;20404;-82
2022/03/12 01:10:34;;;;;;;17.52;9.05;;;;;;;;;;5100688;28;20056;-82
2022/03/12 01:13:00;;;;;;;16.85;8.77;;;;;;;;;;5104549;28;20094;-83
2022/03/12 01:15:26;;;;;;;20.10;8.40;;;;;;;;;;5089190;28;20053;-83
2022/03/12 01:17:53;;;;;;;20.23;8.50;;;;;;;;;;5089721;28;20515;-83
2022/03/12 01:20:20;;;;;;;20.40;8.48;;;;;;;;;;5088375;28;20890;-83
2022/03/12 01:22:46;;;;;;;16.98;8.30;;;;;;;;;;5088184;28;20500;-83
2022/03/12 01:25:12;;;;;;;18.83;8.55;;;;;;;;;;5090359;28;20780;-82
2022/03/12 01:27:39;;;;;;;19.63;8.77;;;;;;;;;;5087639;28;20153;-83
2022/03/12 01:30:07;;;;;;;21.90;8.90;;;;;;;;;;5089327;28;20137;-83
2022/03/12 01:32:34;;;;;;;16.45;8.82;;;;;;;;;;5089087;28;20702;-83
2022/03/12 01:35:00;;;;;;;19.55;8.30;;;;;;;;;;5088500;28;20056;-82
2022/03/12 01:37:26;;;;;;;16.27;8.43;;;;;;;;;;5088814;28;20129;-83
2022/03/12 01:39:53;;;;;;;16.38;8.75;;;;;;;;;;5088487;28;20067;-83
2022/03/12 01:42:21;;;;;;;17.77;7.80;;;;;;;;;;5089263;28;20087;-82
2022/03/12 01:44:50;;;;;;;20.88;8.77;;;;;;;;;;5089268;28;20053;-83
2022/03/12 01:47:19;;;;;;;19.67;8.85;;;;;;;;;;5088499;28;20102;-83
2022/03/12 01:49:47;;;;;;;16.98;9.02;;;;;;;;;;5077500;28;20060;-83
2022/03/12 01:52:13;;;;;;;17.42;8.15;;;;;;;;;;5089545;28;20060;-83
2022/03/12 01:54:43;;;;;;;14.68;8.40;;;;;;;;;;5088596;28;20056;-83
2022/03/12 01:57:09;;;;;;;19.10;8.70;;;;;;;;;;5083911;28;20056;-83
2022/03/12 01:59:36;;;;;;;22.85;9.48;;;;;;;;;;5088615;28;20594;-82
2022/03/12 02:02:06;;;;;;;20.65;9.68;;;;;;;;;;5088148;28;20056;-82
2022/03/12 02:04:33;;;;;;;19.88;9.52;;;;;;;;;;5088434;28;20060;-83
2022/03/12 02:07:00;;;;;;;18.95;10.13;;;;;;;;;;5088007;28;20049;-82
2022/03/12 02:09:26;;;;;;;19.88;9.70;;;;;;;;;;5091299;28;20118;-83
2022/03/12 02:11:53;;;;;;;17.67;9.88;;;;;;;;;;5108493;28;20052;-81
2022/03/12 02:14:19;;;;;;;17.55;8.88;;;;;;;;;;5092728;28;20088;-83
2022/03/12 02:16:50;;;;;;;20.77;10.25;;;;;;;;;;5089038;28;20052;-82
2022/03/12 02:19:17;;;;;;;;;;;;;;;;;;5087882;28;20106;-83
2022/03/12 02:21:54;;;;;;;17.10;9.23;;;;;;;;;;5086050;28;43714;-81
2022/03/12 02:24:22;;;;;;;20.08;9.93;;;;;;;;;;5087791;28;20102;-83
2022/03/12 02:26:48;;;;;;;18.58;10.25;;;;;;;;;;5087151;28;20092;-82
2022/03/12 02:29:20;;;;;;;19.90;10.32;;;;;;;;;;5088581;28;20044;-82
2022/03/12 02:31:51;;;;;;;20.65;9.82;;;;;;;;;;5088195;28;20519;-82
2022/03/12 02:34:21;;;;;;;21.23;9.73;;;;;;;;;;5088881;28;20056;-82
2022/03/12 02:36:49;;;;;;;21.40;10.10;;;;;;;;;;5088133;28;20550;-81
2022/03/12 02:39:17;;;;;;;21.17;10.52;;;;;;;;;;5086885;28;20523;-82
2022/03/12 02:41:43;;;;;;;18.65;10.50;;;;;;;;;;5087312;28;20056;-83
2022/03/12 02:44:16;;;;;;;18.42;10.13;;;;;;;;;;5087911;28;20090;-82
2022/03/12 02:46:42;;;;;;;27.20;10.48;;;;;;;;;;5087183;28;20056;-83
2022/03/12 02:49:09;;;;;;;19.40;10.50;;;;;;;;;;5087288;28;20558;-82
2022/03/12 02:51:35;;;;;;;19.10;10.52;;;;;;;;;;5087656;28;20057;-82
2022/03/12 02:54:01;;;;;;;18.48;9.73;;;;;;;;;;5087512;28;20102;-82
2022/03/12 02:56:28;;;;;;;21.88;10.80;;;;;;;;;;5087177;28;20122;-82
2022/03/12 02:58:55;;;;;;;22.38;10.75;;;;;;;;;;5085103;28;20056;-82
2022/03/12 03:01:22;;;;;;;20.50;9.93;;;;;;;;;;5068126;28;20053;-81
2022/03/12 03:03:50;;;;;;;18.80;9.32;;;;;;;;;;5082178;28;20129;-82
2022/03/12 03:06:17;;;;;;;17.77;9.13;;;;;;;;;;5068717;28;20049;-82
2022/03/12 03:08:44;;;;;;;19.95;10.23;;;;;;;;;;5078906;28;20060;-81
2022/03/12 03:11:17;;;;;;;21.38;10.52;;;;;;;;;;5104759;27;20518;-82
2022/03/12 03:13:44;;;;;;;20.35;9.68;;;;;;;;;;5089974;28;20048;-82
2022/03/12 03:16:25;;;;;;;19.33;10.00;;;;;;;;;;5087901;28;20040;-82
2022/03/12 03:18:53;;;;;;;22.02;9.65;;;;;;;;;;5087254;28;20063;-82
2022/03/12 03:21:22;;;;;;;19.10;9.88;;;;;;;;;;5086553;28;20139;-83
2022/03/12 03:23:49;;;;;;;17.15;9.02;;;;;;;;;;5088786;28;20048;-82
2022/03/12 03:26:19;;;;;;;18.95;9.93;;;;;;;;;;5087469;28;20852;-82
2022/03/12 03:28:46;;;;;;;17.17;8.68;;;;;;;;;;5088660;28;20056;-82
2022/03/12 03:31:12;;;;;;;20.08;9.40;;;;;;;;;;5088794;28;20130;-82
2022/03/12 03:33:39;;;;;;;19.08;10.13;;;;;;;;;;5082552;28;20566;-81
2022/03/12 03:36:05;;;;;;;17.83;9.50;;;;;;;;;;5087662;28;20106;-81
2022/03/12 03:38:32;;;;;;;16.88;8.57;;;;;;;;;;5086894;28;20125;-82
2022/03/12 03:40:58;;;;;;;19.75;9.85;;;;;;;;;;5087269;28;20041;-82
2022/03/12 03:43:25;;;;;;;18.63;8.93;;;;;;;;;;5088565;28;20057;-82
2022/03/12 03:45:53;;;;;;;18.90;9.32;;;;;;;;;;5087378;28;20060;-83
2022/03/12 03:48:21;;;;;;;17.75;8.95;;;;;;;;;;5087973;28;20141;-81
2022/03/12 03:50:48;;;;;;;19.83;9.98;;;;;;;;;;5087711;28;20056;-82
2022/03/12 03:53:15;;;;;;;17.15;9.15;;;;;;;;;;5086246;28;20052;-82
2022/03/12 03:55:42;;;;;;;17.98;9.52;;;;;;;;;;5087142;28;20057;-82
2022/03/12 03:58:10;;;;;;;24.38;9.50;;;;;;;;;;5087239;28;20056;-82
2022/03/12 04:00:37;;;;;;;25.48;10.75;;;;;;;;;;5086433;28;20110;-81
2022/03/12 04:03:08;;;;;;;22.88;10.38;;;;;;;;;;5087385;28;20052;-81
2022/03/12 04:05:36;;;;;;;19.30;9.63;;;;;;;;;;5087253;28;20053;-82
2022/03/12 04:08:04;;;;;;;16.83;9.00;;;;;;;;;;5085729;28;20057;-82
2022/03/12 04:10:30;;;;;;;16.67;8.90;;;;;;;;;;5083262;28;20052;-82
2022/03/12 04:12:57;;;;;;;16.38;9.35;;;;;;;;;;5086739;28;20597;-82
2022/03/12 04:15:24;;;;;;;20.88;9.82;;;;;;;;;;5089207;28;20099;-82
2022/03/12 04:17:52;;;;;;;19.33;9.60;;;;;;;;;;5087319;28;20048;-82
2022/03/12 04:20:18;;;;;;;17.55;9.82;;;;;;;;;;5088219;28;20099;-81
2022/03/12 04:22:47;;;;;;;17.55;9.88;;;;;;;;;;5086771;28;20053;-82
2022/03/12 04:25:14;;;;;;;19.40;9.05;;;;;;;;;;5088979;28;20056;-82
2022/03/12 04:27:44;;;;;;;16.90;9.52;;;;;;;;;;5088581;28;20056;-81
2022/03/12 04:30:11;;;;;;;18.20;9.73;;;;;;;;;;5083322;28;20049;-81
2022/03/12 04:32:39;;;;;;;19.30;10.00;;;;;;;;;;5080296;28;20057;-82
2022/03/12 04:35:06;;;;;;;18.17;9.77;;;;;;;;;;5090471;28;20052;-82
2022/03/12 04:37:34;;;;;;;21.70;10.40;;;;;;;;;;5091654;28;20072;-82
2022/03/12 04:40:10;;;;;;;18.70;10.32;;;;;;;;;;5090063;28;20083;-81
2022/03/12 04:42:44;;;;;;;22.05;9.70;;;;;;;;;;5090145;28;20483;-82
2022/03/12 04:45:11;;;;;;;19.30;9.88;;;;;;;;;;5090143;28;20064;-82
2022/03/12 04:47:41;;;;;;;17.20;9.73;;;;;;;;;;5082144;28;20044;-81
2022/03/12 04:50:08;;;;;;;17.48;8.77;;;;;;;;;;5090885;28;20070;-82
2022/03/12 04:52:35;;;;;;;17.50;10.00;;;;;;;;;;5089910;28;20052;-82
2022/03/12 04:55:09;;;;;;;19.23;9.65;;;;;;;;;;5090280;28;20057;-82
2022/03/12 04:57:36;;;;;;;18.83;10.00;;;;;;;;;;5090412;28;20053;-82
2022/03/12 05:00:03;;;;;;;17.83;9.60;;;;;;;;;;5091642;28;20049;-82
2022/03/12 05:02:30;;;;;;;19.42;9.45;;;;;;;;;;5089823;28;20106;-82
2022/03/12 05:04:56;;;;;;;20.23;9.27;;;;;;;;;;5090539;28;20514;-82
2022/03/12 05:07:24;;;;;;;18.30;9.52;;;;;;;;;;5090625;28;20048;-82
2022/03/12 05:09:51;;;;;;;20.83;9.80;;;;;;;;;;5090879;28;20052;-81
2022/03/12 05:12:17;;;;;;;17.48;9.25;;;;;;;;;;5092383;28;20053;-81
2022/03/12 05:14:46;;;;;;;18.85;9.73;;;;;;;;;;5076179;28;20196;-82
2022/03/12 05:17:14;;;;;;;18.83;9.15;;;;;;;;;;5088460;28;20056;-82
2022/03/12 05:19:40;;;;;;;19.15;9.52;;;;;;;;;;5091789;28;20048;-82
2022/03/12 05:22:07;;;;;;;18.35;10.10;;;;;;;;;;5087908;28;20103;-81
2022/03/12 05:24:34;;;;;;;19.27;10.20;;;;;;;;;;5092187;28;20056;-82
2022/03/12 05:27:01;;;;;;;21.95;10.00;;;;;;;;;;5093103;28;20056;-82
2022/03/12 05:29:30;;;;;;;19.52;10.00;;;;;;;;;;5092525;28;20068;-82
2022/03/12 05:31:56;;;;;;;19.52;10.38;;;;;;;;;;5091177;28;20091;-82
2022/03/12 05:34:23;;;;;;;17.70;9.25;;;;;;;;;;5091889;28;20059;-81
2022/03/12 05:36:49;;;;;;;15.77;9.35;;;;;;;;;;5091554;28;20474;-82
2022/03/12 05:39:16;;;;;;;15.70;8.90;;;;;;;;;;5090393;28;20053;-82
2022/03/12 05:41:44;;;;;;;18.08;9.88;;;;;;;;;;5088232;28;20122;-82
2022/03/12 05:44:14;;;;;;;19.27;9.48;;;;;;;;;;5074983;28;20549;-82
2022/03/12 05:46:41;;;;;;;17.90;10.15;;;;;;;;;;5091451;28;21209;-82
2022/03/12 05:49:08;;;;;;;17.83;9.15;;;;;;;;;;5089487;28;20106;-82
2022/03/12 05:51:36;;;;;;;17.33;8.93;;;;;;;;;;5086634;28;20497;-82
2022/03/12 05:54:03;;;;;;;19.38;9.82;;;;;;;;;;5088094;28;20052;-82
2022/03/12 05:56:30;;;;;;;16.00;8.48;;;;;;;;;;5109391;28;20536;-82
2022/03/12 05:58:56;;;;;;;15.40;8.88;;;;;;;;;;5093815;28;20551;-82
2022/03/12 06:01:23;;;;;;;16.08;8.45;;;;;;;;;;5088091;28;20052;-81
2022/03/12 06:03:49;;;;;;;16.05;9.07;;;;;;;;;;5086209;28;20226;-82
2022/03/12 06:06:16;;;;;;;16.73;8.93;;;;;;;;;;5093659;28;20033;-81
2022/03/12 06:08:42;;;;;;;16.60;8.30;;;;;;;;;;5093434;28;20048;-82
2022/03/12 06:11:09;;;;;;;17.98;8.63;;;;;;;;;;5092257;28;20057;-81
2022/03/12 06:13:37;;;;;;;16.33;8.80;;;;;;;;;;5091177;28;20052;-82
2022/03/12 06:16:04;;;;;;;16.08;8.38;;;;;;;;;;5092959;28;20049;-82
2022/03/12 06:18:33;;;;;;;18.27;10.02;;;;;;;;;;5091022;28;20048;-81
2022/03/12 06:21:00;;;;;;;14.30;8.23;;;;;;;;;;5083367;28;20060;-82
2022/03/12 06:23:27;;;;;;;20.90;8.85;;;;;;;;;;5090623;28;20099;-82
2022/03/12 06:25:53;;;;;;;14.77;8.55;;;;;;;;;;5093144;28;20484;-82
2022/03/12 06:28:21;;;;;;;17.27;8.18;;;;;;;;;;5093810;28;20056;-83
2022/03/12 06:30:48;;;;;;;19.05;8.73;;;;;;;;;;5089657;28;20052;-83
2022/03/12 06:33:18;;;;;;;16.33;8.63;;;;;;;;;;5090225;28;20515;-82
2022/03/12 06:35:46;;;;;;;15.13;8.48;;;;;;;;;;5089497;28;20060;-78
2022/03/12 06:38:14;;;;;;;16.98;8.48;;;;;;;;;;5089654;28;20053;-83
2022/03/12 06:40:40;;;;;;;18.35;8.40;;;;;;;;;;5086868;28;20061;-83
2022/03/12 06:43:09;;;;;;;15.75;8.25;;;;;;;;;;5091162;28;20052;-82
2022/03/12 06:45:35;;;;;;;19.23;8.82;;;;;;;;;;5088811;28;20625;-82
2022/03/12 06:48:02;;;;;;;16.05;9.00;;;;;;;;;;5090289;28;20052;-83
2022/03/12 06:50:28;;;;;;;14.70;8.32;;;;;;;;;;5091375;28;20060;-82
2022/03/12 06:52:56;;;;;;;15.13;7.68;;;;;;;;;;5074756;28;20103;-83
2022/03/12 06:55:23;;;;;;;17.27;8.30;;;;;;;;;;5072913;28;20561;-83
2022/03/12 06:57:51;;;;;;;15.95;8.77;;;;;;;;;;5086810;28;20064;-83
2022/03/12 07:00:20;;;;;;;13.65;7.78;;;;;;;;;;5088180;28;20053;-83
2022/03/12 07:02:46;;;;;;;14.00;7.63;;;;;;;;;;5089285;28;20048;-82
2022/03/12 07:05:13;;;;;;;15.20;7.82;;;;;;;;;;5083640;28;20055;-83
2022/03/12 07:07:39;;;;;;;16.65;8.02;;;;;;;;;;5087205;28;20056;-83
2022/03/12 07:10:07;;;;;;;17.55;8.13;;;;;;;;;;5088567;28;20795;-83
2022/03/12 07:12:33;;;;;;;15.07;7.88;;;;;;;;;;5089176;28;20033;-83
2022/03/12 07:15:00;;;;;;;15.98;7.95;;;;;;;;;;5088914;28;20067;-82
2022/03/12 07:17:26;;;;;;;15.57;7.82;;;;;;;;;;5087184;28;20106;-82
2022/03/12 07:19:53;;;;;;;12.73;7.35;;;;;;;;;;5084462;28;20111;-83
2022/03/12 07:22:19;;;;;;;15.20;8.18;;;;;;;;;;5071565;28;20422;-82
2022/03/12 07:24:45;;;;;;;13.52;7.72;;;;;;;;;;5081268;28;20048;-82
2022/03/12 07:27:13;;;;;;;12.57;7.30;;;;;;;;;;5079167;28;20056;-82
2022/03/12 07:29:40;;;;;;;13.85;7.47;;;;;;;;;;5088285;28;20052;-83
2022/03/12 07:32:06;;;;;;;13.15;7.45;;;;;;;;;;5082783;28;20682;-82
2022/03/12 07:34:33;;;;;;;14.90;7.60;;;;;;;;;;5089084;28;20048;-82
2022/03/12 07:36:59;;;;;;;16.95;8.65;;;;;;;;;;5089534;28;20106;-82
2022/03/12 07:39:25;;;;;;;14.63;7.78;;;;;;;;;;5088617;28;20053;-82
2022/03/12 07:41:52;;;;;;;15.05;8.02;;;;;;;;;;5090702;28;20056;-83
2022/03/12 07:44:19;;;;;;;14.15;8.20;;;;;;;;;;5098136;28;20075;-82
2022/03/12 07:46:45;;;;;;;15.63;7.90;;;;;;;;;;5092688;28;20052;-83
2022/03/12 07:49:13;;;;;;;14.73;8.00;;;;;;;;;;5089862;28;20056;-82
2022/03/12 07:51:43;;;;;;;14.80;7.88;;;;;;;;;;5087102;28;20115;-82
2022/03/12 07:54:10;;;;;;;15.07;7.75;;;;;;;;;;5089340;28;20459;-83
2022/03/12 07:56:38;;;;;;;14.68;8.27;;;;;;;;;;5089683;28;20069;-83
2022/03/12 07:59:05;;;;;;;14.77;8.13;;;;;;;;;;5089646;28;20037;-82
2022/03/12 08:01:31;;;;;;;16.95;8.20;;;;;;;;;;5089470;28;20045;-82
2022/03/12 08:03:58;;;;;;;15.43;8.10;;;;;;;;;;5086759;28;20049;-83
2022/03/12 08:06:25;;;;;;;15.10;8.10;;;;;;;;;;5084514;28;20057;-82
2022/03/12 08:08:51;;;;;;;14.80;7.50;;;;;;;;;;5093158;28;20109;-83
2022/03/12 08:11:31;;;;;;;13.82;7.22;;;;;;;;;;5089591;28;20045;-83
2022/03/12 08:14:01;;;;;;;14.07;7.28;;;;;;;;;;5091195;28;20060;-83
2022/03/12 08:16:28;;;;;;;13.68;7.25;;;;;;;;;;5093483;28;20071;-83
2022/03/12 08:18:55;;;;;;;13.13;7.03;;;;;;;;;;5092083;28;20053;-82
2022/03/12 08:21:21;;;;;;;13.85;7.32;;;;;;;;;;5093568;28;20078;-83
2022/03/12 08:23:48;;;;;;;16.67;7.05;;;;;;;;;;5092823;28;20103;-82
2022/03/12 08:26:16;;;;;;;12.70;6.95;;;;;;;;;;5093785;28;20463;-82
2022/03/12 08:28:43;;;;;;;12.43;7.20;;;;;;;;;;5091996;28;20075;-83
2022/03/12 08:31:09;;;;;;;13.82;6.50;;;;;;;;;;5091636;28;20561;-83
2022/03/12 08:33:37;;;;;;;14.13;6.57;;;;;;;;;;5088590;28;20602;-82
2022/03/12 08:36:06;;;;;;;11.20;6.20;;;;;;;;;;5092917;28;20052;-82
2022/03/12 08:38:34;;;;;;;10.80;6.25;;;;;;;;;;5091375;28;20060;-82
2022/03/12 08:41:01;;;;;;;11.40;6.05;;;;;;;;;;5091930;28;20059;-83
2022/03/12 08:43:28;;;;;;;10.65;5.00;;;;;;;;;;5095675;28;20549;-82
2022/03/12 08:45:55;;;;;;;11.27;5.47;;;;;;;;;;5097230;27;20040;-82
2022/03/12 08:48:21;;;;;;;10.50;5.25;;;;;;;;;;5095821;28;20053;-83
2022/03/12 08:50:48;;;;;;;10.55;5.40;;;;;;;;;;5096245;28;20585;-83
2022/03/12 08:53:17;;;;;;;10.68;5.30;;;;;;;;;;5094808;28;20044;-83
2022/03/12 08:55:46;;;;;;;13.90;5.80;;;;;;;;;;5091192;28;20057;-83
2022/03/12 08:58:13;;;;;;;12.27;5.70;;;;;;;;;;5097189;27;20032;-83
2022/03/12 09:00:40;;;;;;;8.57;5.00;;;;;;;;;;5099742;28;20941;-82
2022/03/12 09:03:07;;;;;;;9.35;5.28;;;;;;;;;;5102445;28;20048;-83
2022/03/12 09:05:34;;;;;;;9.07;4.85;;;;;;;;;;5103928;28;20037;-83
2022/03/12 09:08:02;;;;;;;9.30;5.32;;;;;;;;;;5104602;28;20056;-83
2022/03/12 09:10:29;;;;;;;12.30;5.50;;;;;;;;;;5109465;28;20041;-83
2022/03/12 09:12:55;;;;;;;11.18;6.30;;;;;;;;;;5105764;28;20110;-84
2022/03/12 09:15:24;;;;;;;13.38;5.68;;;;;;;;;;5104812;28;20078;-83
2022/03/12 09:17:52;;;;;;;11.60;5.63;;;;;;;;;;5104032;28;20057;-83
2022/03/12 09:20:24;;;;;;;10.25;5.35;;;;;;;;;;5105585;28;20231;-84
2022/03/12 09:22:53;;;;;;;9.20;4.90;;;;;;;;;;5105874;28;20049;-84
2022/03/12 09:25:20;;;;;;;9.23;5.00;;;;;;;;;;5106352;28;20041;-83
2022/03/12 09:27:46;;;;;;;8.57;4.60;;;;;;;;;;5152172;22;20077;-84
2022/03/12 09:30:20;;;;;;;8.85;4.25;;;;;;;;;;5043448;28;20042;-84
2022/03/12 09:32:54;;;;;;;8.27;4.53;;;;;;;;;;5027632;28;20049;-83
2022/03/12 09:35:24;;;;;;;8.73;4.28;;;;;;;;;;5041874;28;20065;-83
2022/03/12 09:37:54;;;;;;;8.48;4.22;;;;;;;;;;5024794;28;20940;-83
2022/03/12 09:40:23;;;;;;;9.27;3.92;;;;;;;;;;5019525;28;20101;-84
2022/03/12 09:42:52;;;;;;;8.77;3.95;;;;;;;;;;5028081;28;20053;-84
2022/03/12 09:45:20;;;;;;;9.00;4.20;;;;;;;;;;5042428;28;20104;-84
2022/03/12 09:47:50;;;;;;;7.47;3.83;;;;;;;;;;5042837;28;20058;-83
2022/03/12 09:50:17;;;;;;;7.32;4.00;;;;;;;;;;5024813;28;20123;-84
2022/03/12 09:52:43;;;;;;;8.63;4.20;;;;;;;;;;5043838;28;20077;-83
2022/03/12 09:55:16;;;;;;;9.93;4.57;;;;;;;;;;5024713;28;20057;-84
2022/03/12 09:57:44;;;;;;;10.80;4.68;;;;;;;;;;5021784;28;20050;-83
2022/03/12 10:00:13;;;;;;;8.32;4.30;;;;;;;;;;5017501;28;20053;-83
2022/03/12 10:02:40;;;;;;;8.07;4.25;;;;;;;;;;5021935;28;20049;-83
2022/03/12 10:05:11;;;;;;;8.50;4.32;;;;;;;;;;5022342;28;20062;-83
2022/03/12 10:07:38;;;;;;;10.63;4.47;;;;;;;;;;5021868;28;20057;-83
2022/03/12 10:10:05;;;;;;;10.98;4.78;;;;;;;;;;5019962;28;20061;-83
2022/03/12 10:12:31;;;;;;;9.75;4.78;;;;;;;;;;5019644;28;20775;-83
2022/03/12 10:14:57;;;;;;;8.18;4.78;;;;;;;;;;5001015;28;20070;-83
2022/03/12 10:17:24;;;;;;;9.65;5.10;;;;;;;;;;5018592;28;20143;-82
2022/03/12 10:19:50;;;;;;;10.65;4.80;;;;;;;;;;5013834;28;20844;-83
2022/03/12 10:22:17;;;;;;;9.70;5.18;;;;;;;;;;5037623;28;20058;-83
2022/03/12 10:24:43;;;;;;;11.32;5.07;;;;;;;;;;5018550;28;20942;-83
2022/03/12 10:27:10;;;;;;;12.68;5.45;;;;;;;;;;5019674;28;20065;-83
2022/03/12 10:29:38;;;;;;;8.35;4.30;;;;;;;;;;5017477;28;20058;-83
2022/03/12 10:32:24;;;;;;;9.35;4.53;;;;;;;;;;4999925;28;20142;-83
2022/03/12 10:34:55;;;;;;;8.48;4.35;;;;;;;;;;5010221;28;20567;-83
2022/03/12 10:37:23;;;;;;;8.60;4.53;;;;;;;;;;5026938;28;20038;-84
2022/03/12 10:40:00;;;;;;;10.38;5.20;;;;;;;;;;5033698;28;20065;-83
2022/03/12 10:42:26;;;;;;;8.52;4.57;;;;;;;;;;5046007;28;20080;-83
2022/03/12 10:44:53;;;;;;;7.75;4.45;;;;;;;;;;5027453;28;20062;-83
2022/03/12 10:47:23;;;;;;;7.57;4.18;;;;;;;;;;5026641;28;20038;-85
2022/03/12 10:49:58;;;;;;;9.32;4.53;;;;;;;;;;5027289;28;20050;-84
2022/03/12 10:52:27;;;;;;;8.55;4.32;;;;;;;;;;5027344;28;20050;-83
2022/03/12 10:54:54;;;;;;;10.43;3.60;;;;;;;;;;5045780;28;20054;-84
2022/03/12 10:57:20;;;;;;;6.57;3.30;;;;;;;;;;5045057;28;20046;-84
2022/03/12 10:59:51;;;;;;;9.43;2.72;;;;;;;;;;5027452;28;20057;-82
2022/03/12 11:02:17;;;;;;;7.80;2.92;;;;;;;;;;5028558;28;20069;-82
2022/03/12 11:04:44;;;;;;;10.07;2.50;;;;;;;;;;5028037;28;20044;-84
2022/03/12 11:07:21;;;;;;;5.82;2.42;;;;;;;;;;5044927;28;20072;-83
2022/03/12 11:09:48;;;;;;;8.80;2.10;;;;;;;;;;5045449;28;20065;-83
2022/03/12 11:12:30;;;;;;;8.10;2.58;;;;;;;;;;5019645;28;20462;-82
2022/03/12 11:15:15;;;;;;;6.40;2.20;;;;;;;;;;5008171;28;20441;-83
2022/03/12 11:17:45;;;;;;;6.65;2.17;;;;;;;;;;5041139;28;20109;-82
2022/03/12 11:20:21;;;;;;;8.45;2.60;;;;;;;;;;5028491;28;20162;-83
2022/03/12 11:23:07;;;;;;;6.65;2.13;;;;;;;;;;5026951;28;20058;-85
2022/03/12 11:25:36;;;;;;;6.70;2.10;;;;;;;;;;5028437;28;20061;-83
2022/03/12 11:28:16;;;;;;;7.00;2.17;;;;;;;;;;5025907;28;20038;-83
2022/03/12 11:30:43;;;;;;;6.72;2.47;;;;;;;;;;5027574;28;20351;-83
2022/03/12 11:33:09;;;;;;;7.35;2.40;;;;;;;;;;5026183;28;20030;-84
2022/03/12 11:35:44;;;;;;;6.63;2.28;;;;;;;;;;5043430;28;20081;-85
2022/03/12 11:38:15;;;;;;;6.80;2.45;;;;;;;;;;5022885;28;20081;-83
2022/03/12 11:40:46;;;;;;;9.38;2.55;;;;;;;;;;5026477;28;20050;-82
2022/03/12 11:43:22;;;;;;;5.88;2.42;;;;;;;;;;5043915;28;20054;-84
2022/03/12 11:46:00;;;;;;;8.82;2.20;;;;;;;;;;5043669;28;20049;-83
2022/03/12 11:48:27;;;;;;;7.72;2.35;;;;;;;;;;5042993;28;20133;-84
2022/03/12 11:50:54;;;;;;;7.03;2.10;;;;;;;;;;5026046;28;20046;-83
2022/03/12 11:53:21;;;;;;;7.93;2.20;;;;;;;;;;5027035;28;20049;-83
2022/03/12 11:56:08;;;;;;;6.57;2.47;;;;;;;;;;5042009;28;20048;-84
2022/03/12 11:58:36;;;;;;;8.00;2.53;;;;;;;;;;5025880;28;20056;-82
2022/03/12 12:01:02;;;;;;;9.82;2.60;;;;;;;;;;5028270;28;20058;-82
2022/03/12 12:03:29;;;;;;;7.82;2.75;;;;;;;;;;5028116;28;20042;-83
2022/03/12 12:05:56;;;;;;;7.75;2.78;;;;;;;;;;5027667;28;20044;-85
2022/03/12 12:08:22;;;;;;;8.52;2.60;;;;;;;;;;5044001;28;20054;-83
2022/03/12 12:10:50;;;;;;;6.82;2.65;;;;;;;;;;5027715;28;20101;-84
2022/03/12 12:13:18;;;;;;;7.85;3.10;;;;;;;;;;5023156;28;20105;-83
2022/03/12 12:15:44;;;;;;;7.57;2.50;;;;;;;;;;5033375;28;20046;-85
2022/03/12 12:18:12;;;;;;;7.85;2.45;;;;;;;;;;5043245;28;20053;-83
2022/03/12 12:20:40;;;;;;;11.60;3.05;;;;;;;;;;5044966;28;20065;-85
2022/03/12 12:23:06;;;;;;;7.55;2.50;;;;;;;;;;5043760;28;20185;-85
2022/03/12 12:25:34;;;;;;;9.68;2.80;;;;;;;;;;5043803;28;20041;-84
2022/03/12 12:28:12;;;;;;;10.57;2.85;;;;;;;;;;5023716;28;20073;-84
2022/03/12 12:30:42;;;;;;;5.30;2.25;;;;;;;;;;5024951;28;20054;-85
2022/03/12 12:33:12;;;;;;;5.82;2.33;;;;;;;;;;5023925;28;20046;-85
2022/03/12 12:35:38;;;;;;;6.68;2.38;;;;;;;;;;5024608;28;20046;-84
2022/03/12 12:38:08;;;;;;;8.18;2.95;;;;;;;;;;5043530;28;20124;-85
2022/03/12 12:40:47;;;;;;;6.85;2.60;;;;;;;;;;5026201;28;20042;-85
2022/03/12 12:43:18;;;;;;;7.03;2.65;;;;;;;;;;5026048;28;20060;-83
2022/03/12 12:45:53;;;;;;;7.07;2.50;;;;;;;;;;5032700;28;20117;-83
2022/03/12 12:48:27;;;;;;;8.60;2.50;;;;;;;;;;5042027;28;20137;-84
2022/03/12 12:51:15;;;;;;;7.25;2.65;;;;;;;;;;5040743;28;20049;-83
2022/03/12 12:53:46;;;;;;;7.07;2.42;;;;;;;;;;5023005;28;20041;-83
2022/03/12 12:56:21;;;;;;;5.80;2.33;;;;;;;;;;5028125;28;20038;-83
2022/03/12 12:58:54;;;;;;;7.25;2.40;;;;;;;;;;5018074;28;20054;-84
2022/03/12 13:01:22;;;;;;;5.95;2.25;;;;;;;;;;5045192;28;20097;-82
2022/03/12 13:03:50;;;;;;;6.10;2.17;;;;;;;;;;5044224;28;20042;-83
2022/03/12 13:06:35;;;;;;;5.43;2.17;;;;;;;;;;5027080;28;20055;-83
2022/03/12 13:09:05;;;;;;;6.28;2.10;;;;;;;;;;5027475;28;20042;-82
2022/03/12 13:11:32;;;;;;;5.15;1.80;;;;;;;;;;5046320;28;20056;-85
2022/03/12 13:13:59;;;;;;;6.85;2.58;;;;;;;;;;5046286;28;20042;-86
2022/03/12 13:16:26;;;;;;;5.32;2.33;;;;;;;;;;5044353;28;20069;-83
2022/03/12 13:18:53;;;;;;;5.43;2.17;;;;;;;;;;5045314;28;20124;-84
2022/03/12 13:21:27;;;;;;;5.50;2.10;;;;;;;;;;5029330;28;20053;-84
2022/03/12 13:23:53;;;;;;;4.93;1.98;;;;;;;;;;5009009;28;20046;-83
2022/03/12 13:26:20;;;;;;;6.75;2.10;;;;;;;;;;5013783;28;20105;-83
2022/03/12 13:28:50;;;;;;;4.65;1.77;;;;;;;;;;5043165;28;20162;-82
2022/03/12 13:31:19;;;;;;;4.93;2.00;;;;;;;;;;5025519;28;20049;-82
2022/03/12 13:33:47;;;;;;;5.93;1.80;;;;;;;;;;5042606;28;20058;-83
2022/03/12 13:36:21;;;;;;;10.32;2.00;;;;;;;;;;5025515;28;20061;-84
2022/03/12 13:38:48;;;;;;;5.93;1.85;;;;;;;;;;5023771;28;20054;-84
2022/03/12 13:41:16;;;;;;;5.22;1.90;;;;;;;;;;5025063;28;20093;-82
2022/03/12 13:43:42;;;;;;;7.00;2.00;;;;;;;;;;5043477;28;20057;-83
2022/03/12 13:46:09;;;;;;;4.80;1.70;;;;;;;;;;5038378;28;20117;-82
2022/03/12 13:48:35;;;;;;;7.43;2.10;;;;;;;;;;5040858;28;20053;-82
2022/03/12 13:51:02;;;;;;;8.50;1.95;;;;;;;;;;5023210;28;20042;-82
2022/03/12 13:53:29;;;;;;;7.18;2.20;;;;;;;;;;5022774;28;20046;-85
2022/03/12 13:56:04;;;;;;;5.03;1.95;;;;;;;;;;5040730;28;20116;-82
2022/03/12 13:58:30;;;;;;;6.93;2.03;;;;;;;;;;5040080;28;20045;-84
2022/03/12 14:01:00;;;;;;;7.05;2.13;;;;;;;;;;5038649;28;20062;-82
2022/03/12 14:03:30;;;;;;;5.30;1.77;;;;;;;;;;5038601;28;20058;-82
2022/03/12 14:05:57;;;;;;;8.88;1.75;;;;;;;;;;5012658;28;20058;-83
2022/03/12 14:08:28;;;;;;;6.85;1.95;;;;;;;;;;5040158;28;20804;-84
2022/03/12 14:10:55;;;;;;;10.45;2.17;;;;;;;;;;5018999;28;20140;-82
2022/03/12 14:13:21;;;;;;;5.93;2.20;;;;;;;;;;5026643;28;20046;-84
2022/03/12 14:15:51;;;;;;;7.10;2.08;;;;;;;;;;5039131;28;20100;-83
2022/03/12 14:18:20;;;;;;;8.10;1.90;;;;;;;;;;5021893;28;20049;-84
2022/03/12 14:20:48;;;;;;;12.45;2.10;;;;;;;;;;5023014;28;20132;-83
2022/03/12 14:23:22;;;;;;;8.75;2.10;;;;;;;;;;5040003;28;20053;-83
2022/03/12 14:25:55;;;;;;;6.75;2.13;;;;;;;;;;5039291;28;20142;-84
2022/03/12 14:28:23;;;;;;;5.43;1.85;;;;;;;;;;5013429;28;20035;-82
2022/03/12 14:30:50;;;;;;;8.23;1.80;;;;;;;;;;5004893;28;20046;-82
2022/03/12 14:33:17;;;;;;;7.00;1.77;;;;;;;;;;5036681;28;20072;-83
2022/03/12 14:35:44;;;;;;;6.75;1.52;;;;;;;;;;5020721;28;20097;-81
2022/03/12 14:38:10;;;;;;;5.55;1.85;;;;;;;;;;5038662;28;20073;-83
2022/03/12 14:40:37;;;;;;;5.70;1.60;;;;;;;;;;5034746;28;20050;-83